createdAt,value
2022-10-04T00:05:04.164Z,2.97
2022-10-04T00:10:20.676Z,3.22
2022-10-04T00:15:28.232Z,2.75
2022-10-04T00:21:01.016Z,2.95
2022-10-04T00:26:07.945Z,3.30
2022-10-04T00:31:20.055Z,4.15
2022-10-04T00:36:49.138Z,4.10
2022-10-04T00:42:04.649Z,2.85
2022-10-04T00:47:23.208Z,3.05
2022-10-04T00:52:30.733Z,3.65
2022-10-04T00:57:42.647Z,3.50
2022-10-04T01:02:53.751Z,3.55
2022-10-04T01:08:04.569Z,3.88
2022-10-04T01:13:14.341Z,3.28
2022-10-04T01:18:31.428Z,3.10
2022-10-04T01:23:40.918Z,3.33
2022-10-04T01:28:45.467Z,3.20
2022-10-04T01:33:49.342Z,3.25
2022-10-04T01:38:54.819Z,4.15
2022-10-04T01:44:04.254Z,3.95
2022-10-04T01:49:12.716Z,3.97
2022-10-04T01:54:20.411Z,2.80
2022-10-04T01:59:28.685Z,3.30
2022-10-04T02:04:35.512Z,3.60
2022-10-04T02:09:45.920Z,3.40
2022-10-04T02:14:53.311Z,3.05
2022-10-04T02:19:58.356Z,2.70
2022-10-04T02:25:04.368Z,2.90
2022-10-04T02:30:10.499Z,3.75
2022-10-04T02:35:15.083Z,3.08
2022-10-04T02:40:25.327Z,3.53
2022-10-04T02:45:37.130Z,3.95
2022-10-04T02:50:48.607Z,2.30
2022-10-04T02:55:53.502Z,2.80
2022-10-04T03:00:59.551Z,3.55
2022-10-04T03:06:09.425Z,4.65
2022-10-04T03:11:16.092Z,3.30
2022-10-04T03:16:20.129Z,2.17
2022-10-04T03:21:24.492Z,2.60
2022-10-04T03:26:34.380Z,3.10
2022-10-04T03:31:41.983Z,2.88
2022-10-04T03:36:47.484Z,3.13
2022-10-04T03:41:53.412Z,1.98
2022-10-04T03:46:57.425Z,2.73
2022-10-04T03:52:02.371Z,2.40
2022-10-04T03:57:08.609Z,2.13
2022-10-04T04:02:17.756Z,2.05
2022-10-04T04:07:26.771Z,3.27
2022-10-04T04:12:47.962Z,2.55
2022-10-04T04:17:55.429Z,3.47
2022-10-04T04:23:03.355Z,2.80
2022-10-04T04:28:20.102Z,2.25
2022-10-04T04:33:31.471Z,1.73
2022-10-04T04:38:56.464Z,4.40
2022-10-04T04:44:02.182Z,2.65
2022-10-04T04:49:07.508Z,3.65
2022-10-04T04:54:12.232Z,5.03
2022-10-04T04:59:17.684Z,2.15
2022-10-04T05:04:23.081Z,3.50
2022-10-04T05:09:29.373Z,3.10
2022-10-04T05:14:34.523Z,2.95
2022-10-04T05:19:40.602Z,2.42
2022-10-04T05:24:47.261Z,3.10
2022-10-04T05:30:02.698Z,2.92
2022-10-04T05:35:16.797Z,7.50
2022-10-04T05:40:32.871Z,5.45
2022-10-04T05:45:38.656Z,4.38
2022-10-04T05:50:45.543Z,2.65
2022-10-04T05:55:58.422Z,2.80
2022-10-04T06:01:22.959Z,2.63
2022-10-04T06:06:34.923Z,2.38
2022-10-04T06:11:49.345Z,3.05
2022-10-04T06:17:12.081Z,3.63
2022-10-04T06:22:17.891Z,3.13
2022-10-04T06:27:32.871Z,2.92
2022-10-04T06:33:03.383Z,2.53
2022-10-04T06:38:28.131Z,2.65
2022-10-04T06:43:51.221Z,2.60
2022-10-04T06:49:19.358Z,3.03
2022-10-04T06:54:56.512Z,2.92
2022-10-04T07:00:17.547Z,4.18
2022-10-04T07:05:31.667Z,3.55
2022-10-04T07:10:40.320Z,2.58
2022-10-04T07:15:51.780Z,2.00
2022-10-04T07:21:07.087Z,2.08
2022-10-04T07:26:21.938Z,2.35
2022-10-04T07:31:28.328Z,2.33
2022-10-04T07:36:43.191Z,2.35
2022-10-04T07:41:51.615Z,2.60
2022-10-04T07:47:00.128Z,2.30
2022-10-04T07:52:31.127Z,2.55
2022-10-04T07:57:42.767Z,2.47
2022-10-04T08:03:00.039Z,2.35
2022-10-04T08:08:25.597Z,1.92
2022-10-04T08:13:42.252Z,2.35
2022-10-04T08:18:59.422Z,2.65
2022-10-04T08:24:17.710Z,1.98
2022-10-04T08:29:50.391Z,2.33
2022-10-04T08:35:33.471Z,2.60
2022-10-04T08:41:27.585Z,2.55
2022-10-04T08:47:07.794Z,2.00
2022-10-04T08:52:50.618Z,2.05
2022-10-04T08:58:16.065Z,2.10
2022-10-04T09:04:02.586Z,1.95
2022-10-04T09:09:44.620Z,2.30
2022-10-04T09:15:19.559Z,1.92
2022-10-04T09:20:40.071Z,1.60
2022-10-04T09:25:56.505Z,1.73
2022-10-04T09:31:26.123Z,1.52
2022-10-04T09:36:54.631Z,1.65
2022-10-04T09:42:29.299Z,1.60
2022-10-04T09:47:41.149Z,1.70
2022-10-04T09:52:55.678Z,1.63
2022-10-04T09:58:29.585Z,1.73
2022-10-04T10:04:07.507Z,1.90
2022-10-04T10:09:47.707Z,2.10
2022-10-04T10:15:14.145Z,2.15
2022-10-04T10:20:33.529Z,1.52
2022-10-04T10:25:53.561Z,1.98
2022-10-04T10:31:23.176Z,1.55
2022-10-04T10:36:41.132Z,1.55
2022-10-04T10:42:05.512Z,2.05
2022-10-04T10:47:31.772Z,2.00
2022-10-04T10:53:16.962Z,2.22
2022-10-04T10:58:39.861Z,1.90
2022-10-04T11:04:15.476Z,1.90
2022-10-04T11:09:57.965Z,1.80
2022-10-04T11:15:39.972Z,1.60
2022-10-04T11:21:31.589Z,1.73
2022-10-04T11:27:00.245Z,1.80
2022-10-04T11:32:51.465Z,1.58
2022-10-04T11:38:06.769Z,2.13
2022-10-04T11:43:24.386Z,1.88
2022-10-04T11:48:37.926Z,2.05
2022-10-04T11:54:19.214Z,1.80
2022-10-04T11:59:39.000Z,1.50
2022-10-04T12:05:32.527Z,1.90
2022-10-04T12:10:38.706Z,1.70
2022-10-04T12:15:57.791Z,1.90
2022-10-04T12:21:25.894Z,2.00
2022-10-04T12:27:04.686Z,1.80
2022-10-04T12:32:11.885Z,1.58
2022-10-04T12:37:26.126Z,1.70
2022-10-04T12:42:40.628Z,1.60
2022-10-04T12:48:16.828Z,1.60
2022-10-04T12:53:32.236Z,1.60
2022-10-04T12:58:52.169Z,1.70
2022-10-04T13:04:14.322Z,1.35
2022-10-04T13:09:27.287Z,1.40
2022-10-04T13:14:56.781Z,1.38
2022-10-04T13:20:21.741Z,1.40
2022-10-04T13:25:53.587Z,1.52
2022-10-04T13:31:06.967Z,1.40
2022-10-04T13:36:16.919Z,2.05
2022-10-04T13:41:35.045Z,1.40
2022-10-04T13:46:49.396Z,1.58
2022-10-04T13:52:30.614Z,1.30
2022-10-04T13:57:44.502Z,1.15
2022-10-04T14:03:19.770Z,1.52
2022-10-04T14:08:48.481Z,1.27
2022-10-04T14:14:33.883Z,1.52
2022-10-04T14:20:24.237Z,0.98
2022-10-04T14:25:59.379Z,1.35
2022-10-04T14:31:17.879Z,0.98
2022-10-04T14:36:54.546Z,1.10
2022-10-04T14:42:18.717Z,0.95
2022-10-04T14:47:36.189Z,1.20
2022-10-04T14:52:50.189Z,1.33
2022-10-04T14:58:10.469Z,1.27
2022-10-04T15:03:31.851Z,1.10
2022-10-04T15:09:07.187Z,1.10
2022-10-04T15:14:30.614Z,0.98
2022-10-04T15:19:44.705Z,1.02
2022-10-04T15:24:53.417Z,1.38
2022-10-04T15:30:10.282Z,1.10
2022-10-04T15:35:25.514Z,1.33
2022-10-04T15:40:44.612Z,1.15
2022-10-04T15:46:12.790Z,1.00
2022-10-04T15:51:28.200Z,1.38
2022-10-04T15:56:49.773Z,1.10
2022-10-04T16:02:21.220Z,1.48
2022-10-04T16:07:51.600Z,1.27
2022-10-04T16:13:31.429Z,1.40
2022-10-04T16:18:46.669Z,1.60
2022-10-04T16:24:11.239Z,1.40
2022-10-04T16:29:30.759Z,1.60
2022-10-04T16:34:48.700Z,1.60
2022-10-04T16:40:06.818Z,2.00
2022-10-04T16:45:37.152Z,1.88
2022-10-04T16:51:00.595Z,1.80
2022-10-04T16:56:15.414Z,1.80
2022-10-04T17:01:55.078Z,1.95
2022-10-04T17:07:00.302Z,2.25
2022-10-04T17:12:17.519Z,1.60
2022-10-04T17:17:33.775Z,1.90
2022-10-04T17:22:50.015Z,2.25
2022-10-04T17:27:56.425Z,2.08
2022-10-04T17:33:32.074Z,2.20
2022-10-04T17:38:47.689Z,3.00
2022-10-04T17:44:22.433Z,3.65
2022-10-04T17:49:55.831Z,3.17
2022-10-04T17:55:20.597Z,3.08
2022-10-04T18:00:29.470Z,3.10
2022-10-04T18:05:46.791Z,2.28
2022-10-04T18:10:53.576Z,2.60
2022-10-04T18:16:04.829Z,2.50
2022-10-04T18:21:22.729Z,2.20
2022-10-04T18:26:30.006Z,1.77
2022-10-04T18:31:42.789Z,1.60
2022-10-04T18:37:06.805Z,1.70
2022-10-04T18:42:22.339Z,1.63
2022-10-04T18:47:39.694Z,1.95
2022-10-04T18:53:01.123Z,2.05
2022-10-04T18:58:34.297Z,2.10
2022-10-04T19:03:43.915Z,3.83
2022-10-04T19:08:59.238Z,3.40
2022-10-04T19:14:10.040Z,3.35
2022-10-04T19:19:34.744Z,2.10
2022-10-04T19:24:52.249Z,1.77
2022-10-04T19:30:07.836Z,1.98
2022-10-04T19:35:26.098Z,2.15
2022-10-04T19:40:41.510Z,2.42
2022-10-04T19:45:51.685Z,2.60
2022-10-04T19:51:04.306Z,2.08
2022-10-04T19:56:17.652Z,2.20
2022-10-04T20:01:25.330Z,2.08
2022-10-04T20:06:31.588Z,2.17
2022-10-04T20:11:52.012Z,2.25
2022-10-04T20:17:05.421Z,2.10
2022-10-04T20:22:28.526Z,1.95
2022-10-04T20:28:03.999Z,2.00
2022-10-04T20:33:07.427Z,1.85
2022-10-04T20:38:32.140Z,2.03
2022-10-04T20:43:55.294Z,1.90
2022-10-04T20:48:59.599Z,2.20
2022-10-04T20:54:03.602Z,2.20
2022-10-04T20:59:16.865Z,3.05
2022-10-04T21:04:30.016Z,2.80
2022-10-04T21:09:34.559Z,3.08
2022-10-04T21:14:39.511Z,3.00
2022-10-04T21:19:45.702Z,2.92
2022-10-04T21:24:55.929Z,2.95
2022-10-04T21:30:01.792Z,3.30
2022-10-04T21:35:06.381Z,3.10
2022-10-04T21:40:10.447Z,2.83
2022-10-04T21:45:15.278Z,3.55
2022-10-04T21:50:18.578Z,3.85
2022-10-04T21:55:21.874Z,3.13
2022-10-04T22:00:26.671Z,3.45
2022-10-04T22:05:30.038Z,3.25
2022-10-04T22:10:33.386Z,3.60
2022-10-04T22:15:38.079Z,3.28
2022-10-04T22:20:41.286Z,3.10
2022-10-04T22:25:44.595Z,3.60
2022-10-04T22:30:49.731Z,3.00
2022-10-04T22:35:52.988Z,3.05
2022-10-04T22:40:56.339Z,2.90
2022-10-04T22:46:01.110Z,3.00
2022-10-04T22:51:04.586Z,3.15
2022-10-04T22:56:08.383Z,3.15
2022-10-04T23:01:15.951Z,3.45
2022-10-04T23:06:21.115Z,3.92
2022-10-04T23:11:24.354Z,3.47
2022-10-04T23:16:29.107Z,3.00
2022-10-04T23:21:35.339Z,2.47
2022-10-04T23:26:40.624Z,3.08
2022-10-04T23:31:46.401Z,2.15
2022-10-04T23:36:50.083Z,1.95
2022-10-04T23:41:54.599Z,2.28
2022-10-04T23:46:59.292Z,2.75
2022-10-04T23:52:04.244Z,3.10
2022-10-04T23:57:09.590Z,2.80
